Pagrindinis puslapis
METAR-TAF:

METAR-TAF

Oro uostai :

Vadsė, Norvegija

platuma: 70-04N, ilguma: 029-51E, Aukštis: 3 m

Dabartinis oras

Ataskaita buvo paskelbta 20 minutes, ne 06:20 UTC
Vėjas 9 kt iš Pietų/Pietryčių
Temperatūra 2°C
Drėgmė 87%
Slėgis 1014 hPa
Matomumas 10 km arba daugiau
Apsiniaukę ne aukštis 900 ft

METAR: ENVD 250620Z 16009KT 9999 OVC009 02/00 Q1014

Laikas: 08:40 (06:40 UTC)

Prognozė

Ataskaita buvo paskelbta 1 valandą ir 40 minutes, ne 05:00 UTC
Prognozė galioja nuo 25 metu 06 UTC su 25 metu 15 UTC
Vėjas 8 kt iš Pietų
Matomumas 10 km arba daugiau
Mažai debesys ne aukštis 1000 ft
Su prošvaistėmis ne aukštis 2500 ft
Laikinai
nuo 25 metu 06 UTC su 25 metu 09 UTC
Su prošvaistėmis ne aukštis 800 ft

TAF: ENVD 250500Z 2506/2515 17008KT 9999 FEW010 BKN025 TEMPO 2506/2509 BKN008

Orai ataskaitas ir orų prognozės (METAR, TAF).

turimą stotys yra geltonos ir raudonos taškus žemėlapyje.

Perkelti pele per norėdami pamatyti stoties vardą.

Tada spustelėkite, norėdami matyti oro stebėjimo ir prognozės.

Norėdami pakeisti žemėlapį: spustelėkite ant žalios mygtukų su juodo kryžiaus žemyn,; žalią mygtuką su brūkšneliu, jei norite nutolinti; arba žalių rodyklių gretimoms žemėlapius.


METAR-TAF: